createdAt,value
2022-09-09T00:01:25.239Z,19.63
2022-09-09T00:03:59.193Z,19.61
2022-09-09T00:06:32.623Z,19.55
2022-09-09T00:09:06.375Z,19.51
2022-09-09T00:11:41.600Z,19.42
2022-09-09T00:14:17.601Z,19.35
2022-09-09T00:16:51.560Z,19.20
2022-09-09T00:19:25.036Z,19.05
2022-09-09T00:22:05.183Z,19.06
2022-09-09T00:24:42.680Z,19.06
2022-09-09T00:27:18.333Z,19.15
2022-09-09T00:29:54.797Z,19.20
2022-09-09T00:32:23.525Z,19.19
2022-09-09T00:34:54.365Z,19.20
2022-09-09T00:37:26.767Z,19.24
2022-09-09T00:39:59.410Z,19.25
2022-09-09T00:42:34.107Z,19.29
2022-09-09T00:45:15.017Z,19.31
2022-09-09T00:47:48.230Z,19.30
2022-09-09T00:50:30.702Z,19.26
2022-09-09T00:53:13.295Z,19.22
2022-09-09T00:55:49.735Z,19.19
2022-09-09T00:58:17.740Z,19.19
2022-09-09T01:00:49.994Z,19.07
2022-09-09T01:03:35.517Z,19.02
2022-09-09T01:06:14.497Z,19.06
2022-09-09T01:09:07.074Z,19.05
2022-09-09T01:11:44.952Z,19.03
2022-09-09T01:14:26.957Z,18.97
2022-09-09T01:16:58.467Z,18.95
2022-09-09T01:19:40.378Z,18.91
2022-09-09T01:22:16.108Z,18.89
2022-09-09T01:24:57.501Z,18.90
2022-09-09T01:27:48.648Z,18.84
2022-09-09T01:30:19.353Z,18.84
2022-09-09T01:32:50.162Z,18.84
2022-09-09T01:35:44.137Z,18.84
2022-09-09T01:38:12.256Z,18.82
2022-09-09T01:40:40.874Z,18.86
2022-09-09T01:43:10.561Z,18.87
2022-09-09T01:45:40.636Z,18.83
2022-09-09T01:48:08.876Z,18.81
2022-09-09T01:50:45.688Z,18.78
2022-09-09T01:53:16.936Z,18.71
2022-09-09T01:55:54.224Z,18.71
2022-09-09T01:58:34.061Z,18.62
2022-09-09T02:01:08.522Z,18.58
2022-09-09T02:03:37.498Z,18.52
2022-09-09T02:06:27.174Z,18.52
2022-09-09T02:09:03.299Z,18.50
2022-09-09T02:11:33.020Z,18.54
2022-09-09T02:14:29.240Z,18.54
2022-09-09T02:17:00.296Z,18.52
2022-09-09T02:19:43.453Z,18.53
2022-09-09T02:22:25.745Z,18.52
2022-09-09T02:24:59.943Z,18.48
2022-09-09T02:27:31.273Z,18.47
2022-09-09T02:30:03.557Z,18.39
2022-09-09T02:32:44.924Z,18.31
2022-09-09T02:35:17.832Z,18.26
2022-09-09T02:37:48.073Z,18.33
2022-09-09T02:40:17.742Z,18.35
2022-09-09T02:42:56.608Z,18.32
2022-09-09T02:45:29.579Z,18.22
2022-09-09T02:48:04.248Z,18.26
2022-09-09T02:50:35.292Z,18.20
2022-09-09T02:53:12.359Z,18.15
2022-09-09T02:55:51.223Z,18.09
2022-09-09T02:58:22.349Z,18.05
2022-09-09T03:01:02.128Z,17.95
2022-09-09T03:03:31.275Z,17.94
2022-09-09T03:06:02.825Z,18.00
2022-09-09T03:08:30.804Z,18.00
2022-09-09T03:11:02.347Z,17.99
2022-09-09T03:13:32.961Z,17.94
2022-09-09T03:16:02.380Z,17.93
2022-09-09T03:18:35.445Z,17.89
2022-09-09T03:21:05.335Z,17.83
2022-09-09T03:23:33.442Z,17.78
2022-09-09T03:26:04.234Z,17.65
2022-09-09T03:28:41.053Z,17.43
2022-09-09T03:31:11.300Z,17.32
2022-09-09T03:33:43.322Z,17.28
2022-09-09T03:36:14.248Z,17.46
2022-09-09T03:38:42.321Z,17.45
2022-09-09T03:41:10.728Z,17.49
2022-09-09T03:43:40.945Z,17.53
2022-09-09T03:46:10.470Z,17.62
2022-09-09T03:48:38.813Z,17.46
2022-09-09T03:51:07.246Z,17.30
2022-09-09T03:53:38.827Z,17.25
2022-09-09T03:56:07.721Z,17.10
2022-09-09T03:58:36.141Z,16.98
2022-09-09T04:01:14.180Z,16.89
2022-09-09T04:03:43.759Z,16.77
2022-09-09T04:06:14.526Z,16.69
2022-09-09T04:08:46.125Z,16.80
2022-09-09T04:11:15.358Z,16.99
2022-09-09T04:13:45.509Z,17.11
2022-09-09T04:16:16.654Z,17.25
2022-09-09T04:18:45.560Z,17.36
2022-09-09T04:21:16.422Z,17.45
2022-09-09T04:23:44.345Z,17.50
2022-09-09T04:26:12.430Z,17.61
2022-09-09T04:28:41.029Z,17.74
2022-09-09T04:31:19.486Z,17.77
2022-09-09T04:33:48.868Z,17.78
2022-09-09T04:36:19.228Z,17.83
2022-09-09T04:38:49.864Z,17.67
2022-09-09T04:41:18.629Z,17.74
2022-09-09T04:43:49.412Z,17.70
2022-09-09T04:46:19.688Z,17.71
2022-09-09T04:48:50.716Z,17.78
2022-09-09T04:51:19.498Z,17.82
2022-09-09T04:53:51.700Z,17.78
2022-09-09T04:56:20.494Z,17.68
2022-09-09T04:58:53.233Z,17.69
2022-09-09T05:01:26.762Z,17.63
2022-09-09T05:03:59.220Z,17.56
2022-09-09T05:06:27.231Z,17.57
2022-09-09T05:08:59.966Z,17.53
2022-09-09T05:11:33.201Z,17.57
2022-09-09T05:14:06.776Z,17.66
2022-09-09T05:16:36.256Z,17.76
2022-09-09T05:19:04.957Z,17.86
2022-09-09T05:21:44.672Z,18.01
2022-09-09T05:24:13.609Z,18.09
2022-09-09T05:26:42.300Z,18.13
2022-09-09T05:29:10.269Z,18.24
2022-09-09T05:31:40.144Z,18.31
2022-09-09T05:34:12.435Z,18.40
2022-09-09T05:36:40.931Z,18.50
2022-09-09T05:39:09.775Z,18.57
2022-09-09T05:41:37.677Z,18.65
2022-09-09T05:44:06.543Z,18.68
2022-09-09T05:46:40.766Z,18.67
2022-09-09T05:49:09.224Z,18.63
2022-09-09T05:51:38.552Z,18.63
2022-09-09T05:54:11.432Z,18.66
2022-09-09T05:56:45.480Z,18.67
2022-09-09T05:59:15.922Z,18.80
2022-09-09T06:01:46.255Z,18.88
2022-09-09T06:04:40.646Z,18.91
2022-09-09T06:07:09.258Z,18.94
2022-09-09T06:09:37.865Z,18.96
2022-09-09T06:12:06.453Z,18.93
2022-09-09T06:14:37.814Z,18.93
2022-09-09T06:17:07.577Z,19.00
2022-09-09T06:19:35.465Z,19.05
2022-09-09T06:22:03.890Z,19.13
2022-09-09T06:24:35.131Z,19.19
2022-09-09T06:27:04.553Z,19.16
2022-09-09T06:29:35.745Z,19.09
2022-09-09T06:32:04.816Z,19.07
2022-09-09T06:34:34.218Z,19.02
2022-09-09T06:37:02.301Z,19.00
2022-09-09T06:39:41.693Z,18.97
2022-09-09T06:42:10.560Z,18.92
2022-09-09T06:45:05.185Z,18.95
2022-09-09T06:47:38.253Z,18.93
2022-09-09T06:50:09.504Z,18.81
2022-09-09T06:52:37.752Z,18.74
2022-09-09T06:55:07.409Z,18.60
2022-09-09T06:57:37.581Z,18.58
2022-09-09T07:00:12.310Z,18.54
2022-09-09T07:02:42.061Z,18.58
2022-09-09T07:05:12.670Z,18.53
2022-09-09T07:07:42.828Z,18.55
2022-09-09T07:10:12.422Z,18.60
2022-09-09T07:12:41.527Z,18.64
2022-09-09T07:15:12.229Z,18.71
2022-09-09T07:17:43.449Z,18.78
2022-09-09T07:20:13.229Z,18.92
2022-09-09T07:22:41.936Z,19.03
2022-09-09T07:25:11.432Z,19.16
2022-09-09T07:27:39.533Z,19.26
2022-09-09T07:30:09.120Z,19.34
2022-09-09T07:32:37.068Z,19.45
2022-09-09T07:35:05.537Z,19.47
2022-09-09T07:37:34.807Z,19.49
2022-09-09T07:40:04.622Z,19.56
2022-09-09T07:42:32.768Z,19.63
2022-09-09T07:45:00.630Z,19.69
2022-09-09T07:47:28.713Z,19.84
2022-09-09T07:49:57.372Z,19.89
2022-09-09T07:52:30.929Z,19.99
2022-09-09T07:55:05.420Z,20.04
2022-09-09T07:57:34.108Z,20.06
2022-09-09T08:00:03.144Z,20.07
2022-09-09T08:02:40.279Z,20.07
2022-09-09T08:05:09.741Z,20.08
2022-09-09T08:07:39.080Z,20.05
2022-09-09T08:10:09.260Z,20.05
2022-09-09T08:12:38.508Z,20.03
2022-09-09T08:15:07.610Z,20.05
2022-09-09T08:17:35.876Z,20.06
2022-09-09T08:20:08.161Z,20.14
2022-09-09T08:22:38.600Z,20.16
2022-09-09T08:25:09.429Z,20.17
2022-09-09T08:27:40.065Z,20.17
2022-09-09T08:30:09.470Z,20.16
2022-09-09T08:32:38.308Z,20.16
2022-09-09T08:35:09.325Z,20.17
2022-09-09T08:37:37.273Z,20.20
2022-09-09T08:40:06.770Z,20.21
2022-09-09T08:42:49.543Z,20.17
2022-09-09T08:45:27.824Z,20.28
2022-09-09T08:48:08.583Z,20.32
2022-09-09T08:50:39.388Z,20.37
2022-09-09T08:53:18.443Z,20.45
2022-09-09T08:55:49.894Z,20.50
2022-09-09T08:58:25.453Z,20.59
2022-09-09T09:01:27.699Z,20.73
2022-09-09T09:04:04.981Z,20.87
2022-09-09T09:06:47.891Z,21.05
2022-09-09T09:09:23.944Z,21.26
2022-09-09T09:11:55.534Z,21.41
2022-09-09T09:17:06.534Z,21.59
2022-09-09T09:19:36.720Z,21.55
2022-09-09T09:22:12.380Z,21.60
2022-09-09T09:24:51.422Z,21.66
2022-09-09T09:27:32.563Z,21.66
2022-09-09T09:30:23.882Z,21.74
2022-09-09T09:33:02.593Z,21.73
2022-09-09T09:35:30.721Z,21.67
2022-09-09T09:40:53.905Z,21.63
2022-09-09T09:43:25.694Z,21.69
2022-09-09T09:46:14.289Z,21.80
2022-09-09T09:48:44.037Z,21.83
2022-09-09T09:51:14.897Z,21.76
2022-09-09T09:53:44.562Z,21.82
2022-09-09T09:56:17.178Z,21.70
2022-09-09T09:58:52.304Z,21.75
2022-09-09T10:01:28.158Z,21.77
2022-09-09T10:03:59.823Z,21.90
2022-09-09T10:06:32.376Z,22.08
2022-09-09T10:09:00.200Z,22.19
2022-09-09T10:11:44.595Z,22.22
2022-09-09T10:14:21.599Z,22.26
2022-09-09T10:17:04.329Z,22.44
2022-09-09T10:19:34.582Z,22.54
2022-09-09T10:22:18.365Z,22.62
2022-09-09T10:25:20.377Z,22.63
2022-09-09T10:28:06.189Z,22.56
2022-09-09T10:30:45.030Z,22.54
2022-09-09T10:33:24.258Z,22.62
2022-09-09T10:36:01.041Z,22.73
2022-09-09T10:38:36.765Z,22.81
2022-09-09T10:41:15.267Z,22.91
2022-09-09T10:44:14.716Z,22.97
2022-09-09T10:47:02.327Z,22.92
2022-09-09T10:49:59.666Z,22.86
2022-09-09T10:52:34.677Z,22.88
2022-09-09T10:55:10.507Z,22.88
2022-09-09T10:57:42.105Z,22.87
2022-09-09T11:00:20.376Z,22.82
2022-09-09T11:02:53.253Z,22.93
2022-09-09T11:05:26.846Z,23.07
2022-09-09T11:08:00.309Z,23.17
2022-09-09T11:10:35.737Z,23.24
2022-09-09T11:13:07.818Z,23.33
2022-09-09T11:15:41.893Z,23.52
2022-09-09T11:18:14.665Z,23.66
2022-09-09T11:20:45.836Z,23.79
2022-09-09T11:23:18.480Z,23.91
2022-09-09T11:25:51.897Z,24.01
2022-09-09T11:28:33.929Z,24.12
2022-09-09T11:31:16.996Z,24.24
2022-09-09T11:33:58.488Z,24.37
2022-09-09T11:36:56.938Z,24.51
2022-09-09T11:39:55.146Z,24.52
2022-09-09T11:42:26.186Z,24.58
2022-09-09T11:44:55.750Z,24.56
2022-09-09T11:47:30.191Z,24.70
2022-09-09T11:50:10.766Z,24.77
2022-09-09T11:52:43.229Z,24.80
2022-09-09T11:55:13.052Z,24.86
2022-09-09T11:57:43.792Z,24.96
2022-09-09T12:00:36.429Z,24.93
2022-09-09T12:03:05.252Z,25.00
2022-09-09T12:05:43.024Z,25.05
2022-09-09T12:08:19.599Z,25.09
2022-09-09T12:10:56.209Z,25.12
2022-09-09T12:13:26.274Z,25.13
2022-09-09T12:15:55.729Z,25.26
2022-09-09T12:18:26.358Z,25.32
2022-09-09T12:21:02.746Z,25.37
2022-09-09T12:23:43.427Z,25.36
2022-09-09T12:26:38.537Z,25.48
2022-09-09T12:29:17.754Z,25.51
2022-09-09T12:31:52.370Z,25.44
2022-09-09T12:34:29.287Z,25.40
2022-09-09T12:37:05.114Z,25.25
2022-09-09T12:39:37.740Z,25.20
2022-09-09T12:42:06.179Z,25.13
2022-09-09T12:44:34.342Z,25.15
2022-09-09T12:47:04.787Z,25.17
2022-09-09T12:49:37.322Z,25.25
2022-09-09T12:52:07.998Z,25.22
2022-09-09T12:54:38.692Z,25.02
2022-09-09T12:57:07.280Z,24.93
2022-09-09T12:59:40.198Z,24.82
2022-09-09T13:02:19.679Z,24.68
2022-09-09T13:04:48.412Z,24.64
2022-09-09T13:07:17.417Z,24.66
2022-09-09T13:09:49.816Z,24.79
2022-09-09T13:12:20.903Z,24.88
2022-09-09T13:14:51.788Z,24.96
2022-09-09T13:17:23.280Z,25.25
2022-09-09T13:19:53.770Z,25.36
2022-09-09T13:22:38.107Z,25.36
2022-09-09T13:25:19.955Z,25.38
2022-09-09T13:27:56.042Z,25.32
2022-09-09T13:30:25.985Z,25.25
2022-09-09T13:33:24.164Z,25.11
2022-09-09T13:35:56.134Z,25.10
2022-09-09T13:38:27.747Z,25.07
2022-09-09T13:41:03.201Z,25.03
2022-09-09T13:43:32.841Z,24.95
2022-09-09T13:46:02.703Z,24.93
2022-09-09T13:48:30.953Z,25.01
2022-09-09T13:51:01.092Z,25.01
2022-09-09T13:53:29.575Z,25.00
2022-09-09T13:55:57.833Z,25.03
2022-09-09T13:58:27.541Z,25.05
2022-09-09T14:00:55.609Z,25.15
2022-09-09T14:03:23.526Z,25.14
2022-09-09T14:05:51.482Z,25.18
2022-09-09T14:08:29.290Z,25.17
2022-09-09T14:10:59.265Z,25.24
2022-09-09T14:13:28.741Z,25.30
2022-09-09T14:15:56.709Z,25.40
2022-09-09T14:18:26.301Z,25.42
2022-09-09T14:20:54.167Z,25.36
2022-09-09T14:23:22.941Z,25.31
2022-09-09T14:25:50.992Z,25.27
2022-09-09T14:28:25.857Z,25.15
2022-09-09T14:31:08.762Z,25.06
2022-09-09T14:33:37.634Z,24.94
2022-09-09T14:36:05.846Z,24.91
2022-09-09T14:38:36.115Z,24.85
2022-09-09T14:41:04.695Z,24.80
2022-09-09T14:43:33.452Z,24.67
2022-09-09T14:46:09.027Z,24.48
2022-09-09T14:48:37.490Z,24.44
2022-09-09T14:51:09.777Z,24.57
2022-09-09T14:53:38.552Z,24.87
2022-09-09T14:56:09.318Z,25.32
2022-09-09T14:58:37.559Z,25.64
2022-09-09T15:01:08.313Z,25.49
2022-09-09T15:03:36.165Z,25.23
2022-09-09T15:06:09.491Z,24.97
2022-09-09T15:08:41.784Z,24.72
2022-09-09T15:11:12.436Z,24.49
2022-09-09T15:13:41.920Z,24.37
2022-09-09T15:16:13.466Z,24.24
2022-09-09T15:18:43.778Z,24.29
2022-09-09T15:21:11.825Z,24.31
2022-09-09T15:23:40.224Z,24.28
2022-09-09T15:26:08.367Z,24.21
2022-09-09T15:28:38.998Z,24.22
2022-09-09T15:31:09.205Z,24.18
2022-09-09T15:33:39.399Z,24.19
2022-09-09T15:36:18.765Z,24.17
2022-09-09T15:38:46.817Z,24.23
2022-09-09T15:41:15.645Z,24.21
2022-09-09T15:43:46.584Z,24.13
2022-09-09T15:46:33.172Z,24.02
2022-09-09T15:49:10.064Z,23.98
2022-09-09T15:51:43.942Z,23.91
2022-09-09T15:54:14.077Z,23.81
2022-09-09T15:56:42.792Z,23.75
2022-09-09T15:59:11.128Z,23.64
2022-09-09T16:01:40.443Z,23.53
2022-09-09T16:04:09.965Z,23.45
2022-09-09T16:06:38.496Z,23.40
2022-09-09T16:09:07.960Z,23.35
2022-09-09T16:11:37.605Z,23.29
2022-09-09T16:14:07.336Z,23.23
2022-09-09T16:16:36.870Z,23.19
2022-09-09T16:19:07.397Z,23.11
2022-09-09T16:21:40.569Z,23.08
2022-09-09T16:24:10.369Z,23.01
2022-09-09T16:26:40.167Z,23.00
2022-09-09T16:29:09.415Z,22.97
2022-09-09T16:31:37.604Z,22.94
2022-09-09T16:34:06.389Z,22.91
2022-09-09T16:36:37.462Z,22.87
2022-09-09T16:39:07.767Z,22.85
2022-09-09T16:41:35.811Z,22.81
2022-09-09T16:44:04.996Z,22.78
2022-09-09T16:46:36.407Z,22.72
2022-09-09T16:49:06.156Z,22.68
2022-09-09T16:51:37.683Z,22.62
2022-09-09T16:54:08.016Z,22.57
2022-09-09T16:56:38.831Z,22.52
2022-09-09T16:59:09.746Z,22.50
2022-09-09T17:01:39.082Z,22.48
2022-09-09T17:04:09.005Z,22.44
2022-09-09T17:06:38.976Z,22.42
2022-09-09T17:09:09.041Z,22.34
2022-09-09T17:11:37.716Z,22.38
2022-09-09T17:14:06.192Z,22.38
2022-09-09T17:16:36.033Z,22.33
2022-09-09T17:19:05.265Z,22.39
2022-09-09T17:21:34.211Z,22.40
2022-09-09T17:24:03.992Z,22.42
2022-09-09T17:26:34.011Z,22.44
2022-09-09T17:29:02.994Z,22.45
2022-09-09T17:31:33.595Z,22.45
2022-09-09T17:34:02.329Z,22.43
2022-09-09T17:36:32.724Z,22.39
2022-09-09T17:39:01.707Z,22.37
2022-09-09T17:41:32.523Z,22.34
2022-09-09T17:44:00.968Z,22.32
2022-09-09T17:46:30.821Z,22.29
2022-09-09T17:49:00.917Z,22.27
2022-09-09T17:51:32.008Z,22.23
2022-09-09T17:54:03.061Z,22.21
2022-09-09T17:56:33.741Z,22.20
2022-09-09T17:59:03.083Z,22.20
2022-09-09T18:01:33.215Z,22.15
2022-09-09T18:04:02.877Z,22.19
2022-09-09T18:06:34.441Z,22.14
2022-09-09T18:09:05.368Z,22.11
2022-09-09T18:11:38.625Z,22.07
2022-09-09T18:14:06.849Z,22.03
2022-09-09T18:16:36.108Z,22.00
2022-09-09T18:19:06.318Z,22.01
2022-09-09T18:21:35.182Z,22.00
2022-09-09T18:24:05.862Z,21.97
2022-09-09T18:26:36.156Z,21.99
2022-09-09T18:29:07.784Z,21.98
2022-09-09T18:31:37.713Z,21.99
2022-09-09T18:34:07.449Z,21.93
2022-09-09T18:36:38.691Z,21.95
2022-09-09T18:39:08.685Z,21.93
2022-09-09T18:41:39.765Z,21.91
2022-09-09T18:44:10.860Z,21.89
2022-09-09T18:46:39.886Z,21.87
2022-09-09T18:49:08.030Z,21.85
2022-09-09T18:51:37.107Z,21.84
2022-09-09T18:54:07.900Z,21.80
2022-09-09T18:56:37.868Z,21.77
2022-09-09T18:59:07.816Z,21.75
2022-09-09T19:01:36.564Z,21.74
2022-09-09T19:04:06.091Z,21.69
2022-09-09T19:06:37.358Z,21.67
2022-09-09T19:09:05.777Z,21.68
2022-09-09T19:11:34.236Z,21.66
2022-09-09T19:14:05.891Z,21.70
2022-09-09T19:16:35.693Z,21.66
2022-09-09T19:19:06.112Z,21.70
2022-09-09T19:21:36.048Z,21.68
2022-09-09T19:24:06.677Z,21.62
2022-09-09T19:26:40.366Z,21.63
2022-09-09T19:29:10.880Z,21.62
2022-09-09T19:31:39.247Z,21.57
2022-09-09T19:34:07.140Z,21.55
2022-09-09T19:36:35.129Z,21.53
2022-09-09T19:39:03.228Z,21.54
2022-09-09T19:41:32.479Z,21.52
2022-09-09T19:44:02.504Z,21.49
2022-09-09T19:46:33.850Z,21.43
2022-09-09T19:49:02.700Z,21.39
2022-09-09T19:51:32.289Z,21.35
2022-09-09T19:54:02.746Z,21.35
2022-09-09T19:56:31.824Z,21.33
2022-09-09T19:59:00.577Z,21.41
2022-09-09T20:01:30.723Z,21.36
2022-09-09T20:04:02.900Z,21.28
2022-09-09T20:06:34.360Z,21.17
2022-09-09T20:09:02.946Z,21.11
2022-09-09T20:11:30.833Z,21.05
2022-09-09T20:13:58.760Z,21.05
2022-09-09T20:16:28.868Z,21.05
2022-09-09T20:18:58.152Z,20.90
2022-09-09T20:21:31.248Z,20.96
2022-09-09T20:24:01.477Z,20.96
2022-09-09T20:26:32.226Z,20.87
2022-09-09T20:29:00.859Z,20.93
2022-09-09T20:31:30.705Z,20.99
2022-09-09T20:33:59.327Z,20.98
2022-09-09T20:36:30.238Z,21.00
2022-09-09T20:38:59.892Z,21.00
2022-09-09T20:41:29.896Z,21.01
2022-09-09T20:43:59.384Z,20.98
2022-09-09T20:46:29.329Z,20.98
2022-09-09T20:49:02.298Z,20.90
2022-09-09T20:51:34.380Z,20.94
2022-09-09T20:54:04.304Z,21.05
2022-09-09T20:56:34.213Z,21.13
2022-09-09T20:59:02.739Z,21.16
2022-09-09T21:01:31.623Z,21.21
2022-09-09T21:04:00.075Z,21.21
2022-09-09T21:06:27.933Z,21.22
2022-09-09T21:08:57.076Z,21.20
2022-09-09T21:11:25.073Z,21.15
2022-09-09T21:13:52.870Z,21.07
2022-09-09T21:16:21.274Z,21.05
2022-09-09T21:18:49.333Z,20.99
2022-09-09T21:21:19.507Z,20.95
2022-09-09T21:23:47.377Z,20.94
2022-09-09T21:26:17.793Z,20.96
2022-09-09T21:28:45.628Z,20.97
2022-09-09T21:31:15.852Z,20.95
2022-09-09T21:33:43.877Z,20.96
2022-09-09T21:36:13.456Z,20.95
2022-09-09T21:38:41.688Z,20.90
2022-09-09T21:41:12.896Z,20.89
2022-09-09T21:43:42.862Z,20.89
2022-09-09T21:46:12.555Z,20.88
2022-09-09T21:48:40.712Z,20.86
2022-09-09T21:51:11.218Z,20.81
2022-09-09T21:53:39.697Z,20.82
2022-09-09T21:56:10.607Z,20.79
2022-09-09T21:58:39.496Z,20.80
2022-09-09T22:01:11.679Z,20.80
2022-09-09T22:03:40.902Z,20.81
2022-09-09T22:06:10.198Z,20.78
2022-09-09T22:08:38.199Z,20.76
2022-09-09T22:11:08.842Z,20.75
2022-09-09T22:13:38.138Z,20.76
2022-09-09T22:16:08.162Z,20.75
2022-09-09T22:18:38.084Z,20.77
2022-09-09T22:21:06.961Z,20.78
2022-09-09T22:23:34.839Z,20.78
2022-09-09T22:26:02.720Z,20.79
2022-09-09T22:28:30.919Z,20.82
2022-09-09T22:30:58.816Z,20.80
2022-09-09T22:33:27.140Z,20.85
2022-09-09T22:35:56.429Z,20.84
2022-09-09T22:38:24.345Z,20.84
2022-09-09T22:40:52.614Z,20.78
2022-09-09T22:43:22.178Z,20.78
2022-09-09T22:45:51.133Z,20.76
2022-09-09T22:48:19.626Z,20.80
2022-09-09T22:50:47.647Z,20.77
2022-09-09T22:53:18.679Z,20.75
2022-09-09T22:55:58.423Z,20.70
2022-09-09T22:58:26.499Z,20.70
2022-09-09T23:00:58.566Z,20.68
2022-09-09T23:03:26.490Z,20.64
2022-09-09T23:05:57.426Z,20.63
2022-09-09T23:08:32.248Z,20.59
2022-09-09T23:11:00.966Z,20.59
2022-09-09T23:13:33.085Z,20.57
2022-09-09T23:16:03.947Z,20.53
2022-09-09T23:18:33.731Z,20.48
2022-09-09T23:21:02.161Z,20.52
2022-09-09T23:23:31.276Z,20.50
2022-09-09T23:26:02.656Z,20.42
2022-09-09T23:28:32.007Z,20.41
2022-09-09T23:31:00.033Z,20.45
2022-09-09T23:33:27.889Z,20.44
2022-09-09T23:36:02.601Z,20.45
2022-09-09T23:38:31.942Z,20.48
2022-09-09T23:41:02.324Z,20.42
2022-09-09T23:43:30.322Z,20.44
2022-09-09T23:46:00.821Z,20.37
2022-09-09T23:48:29.183Z,20.27
2022-09-09T23:50:57.043Z,20.15
2022-09-09T23:53:24.881Z,20.11
2022-09-09T23:55:54.572Z,20.21
2022-09-09T23:58:22.373Z,20.21
